Freedom, Oklahoma
Current Conditions -  °F | °C
As of 6:30 PM on Tuesday 25 Nov 2014 (Local Time) from KAVK Reporting Station
Broken Clouds Broken Clouds  
Wind Chill: 41°   Ceiling: 12000
Heat Index: 46°   Visibility: 10mi
Dew Point: 25°   Wind: 10mph
Humidity: 43%   Direction: 160°SSE
Pressure: 30"   Gusts: NA
Location:  36.77°N, 99.11°W
Report Text: KAVK 260030Z AUTO 16009KT 10SM BKN120 08/M04 A3000 RMK AO2
Loading
Personal Weather Stations






























Interactive Weather Map New forecast layout! Learn more

10-Day Weather Forecast

Advertisements
Track Severe Weather on mobile